Time;durP1;ratioP1;P1;durP2;ratioP2;P2;SDS_P1;SDS_P2;PMS_P1;PMS_P2;Temp;Humidity;BMP_temperature;BMP_pressure;BME280_temperature;BME280_humidity;BME280_pressure;Samples;Min_cycle;Max_cycle;Signal;HPM_P1;HPM_P2
2022/11/07 00:00:17;;;;;;;56.60;36.53;;;;;;;14.07;100.00;99619.72;5072063;28;20623;-58
2022/11/07 00:02:44;;;;;;;51.70;36.57;;;;;;;14.10;100.00;99623.97;5071782;28;20220;-59
2022/11/07 00:05:13;;;;;;;57.40;36.20;;;;;;;14.08;100.00;99621.41;5071595;28;20204;-58
2022/11/07 00:07:39;;;;;;;54.27;36.03;;;;;;;14.05;100.00;99633.75;5071606;28;20203;-59
2022/11/07 00:10:07;;;;;;;57.60;36.97;;;;;;;14.00;100.00;99628.69;5071841;28;20196;-61
2022/11/07 00:12:35;;;;;;;53.93;36.00;;;;;;;13.98;100.00;99629.69;5071469;28;20192;-60
2022/11/07 00:15:03;;;;;;;53.83;35.80;;;;;;;13.75;100.00;99608.00;5071608;28;20196;-60
2022/11/07 00:17:30;;;;;;;52.80;34.57;;;;;;;13.84;100.00;99629.41;5071277;28;20199;-61
2022/11/07 00:19:57;;;;;;;46.73;33.27;;;;;;;13.75;100.00;99630.63;5071611;28;20236;-61
2022/11/07 00:22:26;;;;;;;51.87;33.17;;;;;;;13.72;100.00;99630.72;5071287;28;20220;-59
2022/11/07 00:24:53;;;;;;;45.63;31.97;;;;;;;13.70;100.00;99632.53;5071519;28;20200;-62
2022/11/07 00:27:20;;;;;;;46.20;31.57;;;;;;;13.76;100.00;99632.31;5071566;28;20584;-61
2022/11/07 00:29:46;;;;;;;48.70;33.40;;;;;;;13.77;100.00;99634.84;5071557;28;20708;-62
2022/11/07 00:32:13;;;;;;;45.67;32.80;;;;;;;13.87;100.00;99624.06;5071159;28;20196;-61
2022/11/07 00:34:40;;;;;;;45.83;33.57;;;;;;;13.85;100.00;99625.88;5071499;28;20200;-61
2022/11/07 00:37:07;;;;;;;49.83;34.50;;;;;;;13.89;100.00;99628.28;5071002;28;20204;-60
2022/11/07 00:39:36;;;;;;;54.23;36.47;;;;;;;13.89;100.00;99630.03;5071077;28;20191;-61
2022/11/07 00:42:03;;;;;;;56.80;38.07;;;;;;;13.89;100.00;99630.03;5070889;28;20226;-61
2022/11/07 00:44:29;;;;;;;59.00;39.13;;;;;;;13.88;100.00;99631.84;5070971;28;20583;-63
2022/11/07 00:46:56;;;;;;;56.87;38.83;;;;;;;13.81;100.00;99622.53;5070751;28;20566;-62
2022/11/07 00:49:23;;;;;;;64.77;40.97;;;;;;;13.87;100.00;99629.28;5070931;28;20200;-62
2022/11/07 00:51:50;;;;;;;55.40;38.50;;;;;;;13.91;100.00;99628.22;5070923;28;20191;-61
2022/11/07 00:54:17;;;;;;;55.10;37.97;;;;;;;13.92;100.00;99632.53;5070840;28;20196;-61
2022/11/07 00:56:45;;;;;;;50.77;35.93;;;;;;;13.88;100.00;99624.00;5070636;28;20687;-60
2022/11/07 00:59:12;;;;;;;50.33;36.30;;;;;;;13.93;100.00;99624.66;5070571;28;20280;-61
2022/11/07 01:01:40;;;;;;;55.10;36.97;;;;;;;13.84;100.00;99605.91;5070397;28;20278;-60
2022/11/07 01:06:51;;;;;;;54.63;34.80;;;;;;;13.90;100.00;99631.75;5070717;28;20246;-60
2022/11/07 01:09:21;;;;;;;48.93;34.73;;;;;;;13.94;100.00;99633.31;5070582;28;20591;-60
2022/11/07 01:11:49;;;;;;;51.33;35.07;;;;;;;13.94;100.00;99631.56;5070220;28;20739;-60
2022/11/07 01:14:19;;;;;;;51.93;34.97;;;;;;;14.00;100.00;99635.69;5070667;28;20196;-61
2022/11/07 01:16:46;;;;;;;52.30;35.20;;;;;;;14.03;100.00;99632.94;5070203;28;20199;-61
2022/11/07 01:19:13;;;;;;;53.67;35.23;;;;;;;14.03;100.00;99627.72;5070189;28;20291;-59
2022/11/07 01:21:41;;;;;;;55.13;34.53;;;;;;;14.04;100.00;99632.03;5069917;28;20795;-58
2022/11/07 01:24:10;;;;;;;49.60;35.30;;;;;;;13.80;100.00;99597.34;5070088;28;20195;-62
2022/11/07 01:26:37;;;;;;;52.37;35.57;;;;;;;14.04;100.00;99632.03;5069973;28;20206;-58
2022/11/07 01:29:06;;;;;;;54.43;33.67;;;;;;;14.12;100.00;99633.41;5069816;28;20206;-59
2022/11/07 01:31:33;;;;;;;51.33;35.17;;;;;;;14.16;100.00;99631.53;5069790;28;20290;-61
2022/11/07 01:34:01;;;;;;;50.83;33.90;;;;;;;14.18;100.00;99632.31;5070128;28;20199;-60
2022/11/07 01:36:28;;;;;;;53.83;34.87;;;;;;;14.01;100.00;99613.88;5069923;28;20698;-60
2022/11/07 01:38:55;;;;;;;54.37;34.97;;;;;;;14.16;100.00;99626.31;5069841;28;20202;-60
2022/11/07 01:41:24;;;;;;;56.30;34.37;;;;;;;14.15;100.00;99632.44;5070251;28;20219;-60
2022/11/07 01:43:59;;;;;;;49.23;33.03;;;;;;;14.18;100.00;99621.88;5069987;28;20227;-61
2022/11/07 01:46:31;;;;;;;53.07;35.37;;;;;;;14.13;100.00;99627.28;5069976;28;20196;-60
2022/11/07 01:49:06;;;;;;;51.40;34.00;;;;;;;14.15;100.00;99624.63;5069757;28;21109;-61
2022/11/07 01:51:37;;;;;;;52.83;35.00;;;;;;;14.24;100.00;99632.06;5069640;28;20269;-61
2022/11/07 01:54:05;;;;;;;51.50;33.93;;;;;;;14.26;100.00;99634.59;5069727;28;20211;-60
2022/11/07 01:56:34;;;;;;;47.63;33.90;;;;;;;14.29;100.00;99635.34;5069646;28;20200;-60
2022/11/07 01:59:02;;;;;;;53.37;34.60;;;;;;;14.29;100.00;99630.13;5069742;28;20196;-60
2022/11/07 02:01:31;;;;;;;46.97;33.03;;;;;;;14.17;100.00;99614.97;5069648;28;20204;-60
2022/11/07 02:03:59;;;;;;;52.43;36.80;;;;;;;14.19;100.00;99631.41;5069624;28;20216;-60
2022/11/07 02:06:35;;;;;;;57.37;35.90;;;;;;;14.15;100.00;99629.84;5069882;28;20191;-60
2022/11/07 02:09:02;;;;;;;55.43;36.83;;;;;;;14.24;100.00;99634.66;5069747;28;20748;-60
2022/11/07 02:11:29;;;;;;;60.73;35.07;;;;;;;14.28;100.00;99638.84;5069560;28;20256;-60
2022/11/07 02:13:56;;;;;;;53.50;34.40;;;;;;;14.27;100.00;99634.53;5069715;28;20196;-60
2022/11/07 02:16:23;;;;;;;49.63;34.03;;;;;;;14.30;100.00;99644.88;5069471;28;20195;-60
2022/11/07 02:18:51;;;;;;;51.63;35.63;;;;;;;14.28;100.00;99636.25;5069247;28;20195;-60
2022/11/07 02:21:29;;;;;;;59.07;36.73;;;;;;;14.18;100.00;99641.00;5069131;28;20232;-59
2022/11/07 02:24:01;;;;;;;60.57;37.03;;;;;;;14.13;100.00;99644.72;5069545;28;20223;-59
2022/11/07 02:26:29;;;;;;;55.77;36.73;;;;;;;14.07;100.00;99650.19;5069699;28;20657;-60
2022/11/07 02:28:57;;;;;;;54.70;38.47;;;;;;;14.08;100.00;99644.91;5069274;28;20207;-60
2022/11/07 02:31:24;;;;;;;58.87;38.97;;;;;;;14.05;100.00;99646.78;5069363;28;20202;-60
2022/11/07 02:33:51;;;;;;;56.00;37.30;;;;;;;14.07;100.00;99647.59;5069420;28;20196;-60
2022/11/07 02:36:21;;;;;;;52.80;38.90;;;;;;;14.13;100.00;99652.53;5069233;28;20206;-60
2022/11/07 02:38:56;;;;;;;63.03;37.90;;;;;;;14.06;100.00;99632.84;5069228;28;20203;-61
2022/11/07 02:41:25;;;;;;;51.97;36.97;;;;;;;14.10;100.00;99653.53;5069717;28;20200;-62
2022/11/07 02:43:56;;;;;;;58.47;37.87;;;;;;;14.10;100.00;99652.69;5073212;28;20241;-62
2022/11/07 02:46:25;;;;;;;60.93;39.57;;;;;;;14.08;100.00;99657.13;5073200;28;20200;-61
2022/11/07 02:48:56;;;;;;;60.50;37.63;;;;;;;14.09;100.00;99657.06;5073123;28;20196;-59
2022/11/07 02:51:23;;;;;;;51.53;36.10;;;;;;;14.02;100.00;99657.34;5073209;28;20579;-62
2022/11/07 02:53:50;;;;;;;59.00;38.40;;;;;;;13.93;100.00;99661.19;5072816;28;20196;-61
2022/11/07 02:56:17;;;;;;;56.17;37.80;;;;;;;13.92;100.00;99659.47;5072886;28;20192;-61
2022/11/07 02:58:44;;;;;;;57.53;38.33;;;;;;;13.97;100.00;99654.09;5072862;28;20210;-60
2022/11/07 03:01:13;;;;;;;55.97;37.53;;;;;;;13.92;100.00;99658.63;5073081;28;20196;-60
2022/11/07 03:03:42;;;;;;;59.83;37.20;;;;;;;13.89;100.00;99661.34;5072889;28;20228;-60
2022/11/07 03:06:12;;;;;;;55.13;37.53;;;;;;;13.88;100.00;99657.06;5072722;28;20199;-61
2022/11/07 03:08:39;;;;;;;53.93;35.87;;;;;;;13.89;100.00;99658.75;5072595;28;20200;-61
2022/11/07 03:11:06;;;;;;;54.47;36.57;;;;;;;13.88;100.00;99657.06;5072932;28;20624;-62
2022/11/07 03:13:33;;;;;;;54.43;36.07;;;;;;;13.93;100.00;99655.97;5072923;28;20586;-62
2022/11/07 03:16:05;;;;;;;56.07;35.40;;;;;;;13.81;100.00;99633.81;5072765;28;20242;-62
2022/11/07 03:18:34;;;;;;;55.53;37.17;;;;;;;13.90;100.00;99658.69;5073106;28;20652;-60
2022/11/07 03:21:01;;;;;;;61.83;37.07;;;;;;;13.96;100.00;99660.22;5072341;28;20617;-59
2022/11/07 03:23:28;;;;;;;52.10;36.20;;;;;;;13.88;100.00;99657.94;5072676;28;20230;-60
2022/11/07 03:25:55;;;;;;;52.57;37.30;;;;;;;13.82;100.00;99656.38;5072401;28;20196;-60
2022/11/07 03:28:22;;;;;;;52.47;37.20;;;;;;;13.76;100.00;99655.81;5072365;28;20199;-60
2022/11/07 03:30:48;;;;;;;62.87;38.30;;;;;;;13.73;100.00;99658.53;5072450;28;20210;-60
2022/11/07 03:33:15;;;;;;;53.67;37.07;;;;;;;13.77;100.00;99653.09;5072294;28;20215;-60
2022/11/07 03:35:44;;;;;;;57.13;37.03;;;;;;;13.75;100.00;99652.34;5072028;28;20210;-60
2022/11/07 03:38:11;;;;;;;55.03;36.63;;;;;;;13.72;100.00;99655.06;5072439;28;20196;-59
2022/11/07 03:40:37;;;;;;;57.50;36.27;;;;;;;13.74;100.00;99657.63;5072118;28;20211;-58
2022/11/07 03:43:04;;;;;;;53.33;36.03;;;;;;;13.67;100.00;99654.38;5072406;28;20700;-60
2022/11/07 03:45:31;;;;;;;55.60;36.07;;;;;;;13.68;100.00;99653.47;5072107;28;20195;-59
2022/11/07 03:47:58;;;;;;;58.00;37.27;;;;;;;13.66;100.00;99657.88;5072145;28;20206;-59
2022/11/07 03:50:25;;;;;;;50.20;35.87;;;;;;;13.69;100.00;99657.78;5071920;28;20196;-62
2022/11/07 03:52:53;;;;;;;51.07;36.13;;;;;;;13.59;100.00;99651.22;5071664;28;20196;-63
2022/11/07 03:55:20;;;;;;;50.10;37.23;;;;;;;13.58;100.00;99659.97;5072045;28;20196;-61
2022/11/07 03:57:47;;;;;;;66.63;44.47;;;;;;;13.54;100.00;99660.16;5071895;28;20204;-61
2022/11/07 04:00:15;;;;;;;59.67;40.70;;;;;;;13.46;100.00;99665.63;5071689;28;20199;-62
2022/11/07 04:02:43;;;;;;;62.73;41.83;;;;;;;13.27;100.00;99643.78;5071583;28;20220;-62
2022/11/07 04:05:11;;;;;;;61.80;42.23;;;;;;;13.51;100.00;99676.75;5071287;28;20567;-61
2022/11/07 04:07:38;;;;;;;57.20;39.83;;;;;;;13.55;100.00;99669.66;5071784;28;20210;-59
2022/11/07 04:10:06;;;;;;;60.63;40.23;;;;;;;13.54;100.00;99667.97;5071505;28;20207;-60
2022/11/07 04:18:02;;;;;;;62.73;37.90;;;;;;;13.53;100.00;99677.56;5071524;28;20223;-59
2022/11/07 04:20:29;;;;;;;50.33;35.83;;;;;;;13.56;100.00;99682.63;5070371;28;20715;-59
2022/11/07 04:22:56;;;;;;;50.27;34.83;;;;;;;13.59;100.00;99676.47;5066207;28;20688;-59
2022/11/07 04:28:05;;;;;;;52.23;35.53;;;;;;;13.55;100.00;99680.94;5069017;28;20219;-58
2022/11/07 04:30:32;;;;;;;52.57;34.20;;;;;;;13.59;100.00;99681.66;5071061;28;20223;-58
2022/11/07 04:33:00;;;;;;;45.43;32.00;;;;;;;13.66;100.00;99677.91;5070790;28;20219;-58
2022/11/07 04:35:29;;;;;;;43.63;33.00;;;;;;;13.69;100.00;99678.66;5070909;28;20303;-58
2022/11/07 04:37:56;;;;;;;45.27;31.53;;;;;;;13.69;100.00;99670.81;5070021;28;20227;-59
2022/11/07 04:40:25;;;;;;;46.73;31.60;;;;;;;13.77;100.00;99678.34;5070325;28;20250;-58
2022/11/07 04:42:52;;;;;;;50.60;31.40;;;;;;;13.80;100.00;99680.84;5070540;28;20228;-61
2022/11/07 04:45:19;;;;;;;48.50;30.63;;;;;;;13.81;100.00;99672.94;5069803;28;20228;-59
2022/11/07 04:47:46;;;;;;;49.57;30.80;;;;;;;13.75;100.00;99662.78;5069764;28;20192;-59
2022/11/07 04:50:15;;;;;;;44.90;30.27;;;;;;;13.87;100.00;99671.03;5069569;28;20280;-60
2022/11/07 04:52:43;;;;;;;45.97;30.37;;;;;;;13.80;100.00;99652.13;5069341;28;20597;-59
2022/11/07 04:55:16;;;;;;;44.77;32.80;;;;;;;13.95;100.00;99675.03;5070042;28;20283;-62
2022/11/07 04:57:45;;;;;;;46.30;31.50;;;;;;;13.80;100.00;99676.47;5070509;28;20203;-59
2022/11/07 05:00:12;;;;;;;49.23;31.47;;;;;;;13.84;100.00;99681.56;5069990;28;20200;-63
2022/11/07 05:02:39;;;;;;;44.43;32.30;;;;;;;13.91;100.00;99686.47;5069304;28;20192;-61
2022/11/07 05:05:07;;;;;;;48.67;34.47;;;;;;;13.90;100.00;99684.78;5067761;28;20200;-60
2022/11/07 05:07:34;;;;;;;48.13;34.27;;;;;;;13.97;100.00;99698.44;5069287;28;20200;-63
2022/11/07 05:10:01;;;;;;;52.37;36.03;;;;;;;13.99;100.00;99692.28;5069253;28;20226;-63
2022/11/07 05:12:28;;;;;;;60.20;42.17;;;;;;;14.01;100.00;99706.09;5066841;28;20198;-62
2022/11/07 05:14:56;;;;;;;63.33;41.20;;;;;;;13.91;100.00;99698.69;5069027;28;20196;-60
2022/11/07 05:17:23;;;;;;;59.50;38.83;;;;;;;13.80;100.00;99704.31;5070300;28;20200;-59
2022/11/07 05:19:50;;;;;;;59.33;35.63;;;;;;;13.81;100.00;99695.59;5070025;28;20235;-60
2022/11/07 05:25:01;;;;;;;51.17;34.53;;;;;;;13.78;100.00;99704.38;5069137;28;20248;-60
2022/11/07 05:27:28;;;;;;;49.80;34.50;;;;;;;13.73;100.00;99698.50;5069367;28;20294;-56
2022/11/07 05:29:56;;;;;;;55.13;33.23;;;;;;;13.77;100.00;99702.66;5069710;28;20206;-59
2022/11/07 05:32:24;;;;;;;55.73;35.07;;;;;;;13.77;100.00;99702.66;5069873;28;20204;-57
2022/11/07 05:34:50;;;;;;;56.20;36.77;;;;;;;13.82;100.00;99705.97;5069667;28;20202;-61
2022/11/07 05:37:17;;;;;;;56.30;35.50;;;;;;;13.89;100.00;99711.78;5069949;28;20283;-62
2022/11/07 05:39:44;;;;;;;53.50;33.07;;;;;;;13.98;100.00;99716.66;5069938;28;20218;-61
2022/11/07 05:42:11;;;;;;;54.27;34.33;;;;;;;13.98;100.00;99721.03;5070001;28;20231;-62
2022/11/07 05:44:38;;;;;;;54.17;34.23;;;;;;;13.90;100.00;99730.91;5069314;28;20611;-60
2022/11/07 05:47:06;;;;;;;61.50;35.57;;;;;;;13.98;100.00;99739.31;5069230;28;20222;-60
2022/11/07 05:49:33;;;;;;;63.47;37.13;;;;;;;13.97;100.00;99729.78;5068440;28;20195;-60
2022/11/07 05:52:00;;;;;;;50.70;36.07;;;;;;;14.12;100.00;99734.34;5068540;28;20283;-60
2022/11/07 05:54:29;;;;;;;60.27;37.67;;;;;;;14.30;100.00;99738.88;5069198;28;20279;-60
2022/11/07 05:56:57;;;;;;;66.50;40.07;;;;;;;14.36;100.00;99743.81;5068558;28;20714;-60
2022/11/07 05:59:24;;;;;;;64.03;38.60;;;;;;;14.41;100.00;99748.91;5068979;28;20257;-60
2022/11/07 06:01:52;;;;;;;60.90;36.23;;;;;;;14.43;100.00;99745.34;5068917;28;20287;-60
2022/11/07 06:04:21;;;;;;;54.07;35.87;;;;;;;14.47;100.00;99757.34;5069376;28;20225;-61
2022/11/07 06:06:48;;;;;;;56.00;37.40;;;;;;;14.49;100.00;99765.97;5069456;28;20200;-61
2022/11/07 06:09:14;;;;;;;51.33;35.30;;;;;;;14.55;100.00;99771.88;5069662;28;20206;-61
2022/11/07 06:11:41;;;;;;;47.33;33.07;;;;;;;14.56;100.00;99777.00;5069582;28;20214;-62
2022/11/07 06:14:09;;;;;;;52.73;33.30;;;;;;;14.66;100.00;99767.91;5069368;28;20589;-61
2022/11/07 06:16:36;;;;;;;47.20;33.03;;;;;;;14.68;100.00;99765.19;5069384;28;20525;-60
2022/11/07 06:19:03;;;;;;;59.07;33.57;;;;;;;14.77;100.00;99781.38;5069368;28;20294;-60
2022/11/07 06:21:31;;;;;;;53.17;33.90;;;;;;;14.90;100.00;99779.06;5069226;28;20243;-60
2022/11/07 06:23:59;;;;;;;50.83;33.63;;;;;;;15.00;100.00;99788.25;5069438;28;20253;-61
2022/11/07 06:26:26;;;;;;;49.83;33.60;;;;;;;15.02;100.00;99786.38;5069391;28;20675;-60
2022/11/07 06:28:53;;;;;;;49.70;33.77;;;;;;;15.14;100.00;99790.25;5069284;28;20206;-60
2022/11/07 06:31:20;;;;;;;51.77;34.10;;;;;;;15.23;100.00;99785.50;5069367;28;20200;-62
2022/11/07 06:33:50;;;;;;;64.63;34.97;;;;;;;15.24;100.00;99795.00;5069215;28;20192;-62
2022/11/07 06:36:17;;;;;;;52.30;34.20;;;;;;;15.33;100.00;99800.78;5069463;28;20230;-61
2022/11/07 06:38:45;;;;;;;59.63;35.00;;;;;;;15.35;100.00;99815.44;5069345;28;20199;-61
2022/11/07 06:41:14;;;;;;;46.93;32.70;;;;;;;15.33;100.00;99822.53;5069156;28;20196;-61
2022/11/07 06:43:42;;;;;;;46.57;32.30;;;;;;;15.37;100.00;99823.25;5054191;28;20630;-62
2022/11/07 06:46:11;;;;;;;50.17;32.93;;;;;;;15.33;100.00;99800.78;5048839;28;20224;-62
2022/11/07 06:48:38;;;;;;;47.53;33.03;;;;;;;15.52;100.00;99819.97;5048413;28;20311;-61
2022/11/07 06:51:08;;;;;;;46.00;30.07;;;;;;;15.31;100.00;99828.75;5051857;28;20247;-61
2022/11/07 06:53:36;;;;;;;46.27;31.23;;;;;;;15.24;100.00;99828.16;5068742;28;20219;-60
2022/11/07 06:56:06;;;;;;;51.73;31.70;;;;;;;15.20;100.00;99826.59;5068808;28;20798;-61
2022/11/07 06:58:33;;;;;;;49.90;30.27;;;;;;;15.10;100.00;99826.16;5068756;28;20230;-61
2022/11/07 07:01:02;;;;;;;48.83;31.40;;;;;;;15.19;100.00;99838.81;5068764;28;20224;-60
2022/11/07 07:03:29;;;;;;;54.17;32.27;;;;;;;15.08;100.00;99837.56;5068247;28;20327;-60
2022/11/07 07:06:00;;;;;;;53.43;32.17;;;;;;;15.01;100.00;99847.41;5068405;28;20602;-61
2022/11/07 07:08:27;;;;;;;59.50;35.73;;;;;;;15.07;100.00;99836.72;5068897;28;20619;-61
2022/11/07 07:10:54;;;;;;;58.93;34.20;;;;;;;15.19;100.00;99835.34;5068487;28;20711;-61
2022/11/07 07:13:22;;;;;;;44.37;28.67;;;;;;;15.40;100.00;99841.44;5068155;28;20228;-61
2022/11/07 07:15:53;;;;;;;50.20;29.33;;;;;;;15.37;100.00;99834.56;5067448;28;20222;-61
2022/11/07 07:18:21;;;;;;;53.03;28.87;;;;;;;15.54;100.00;99833.84;5068078;28;20211;-60
2022/11/07 07:20:48;;;;;;;44.73;28.20;;;;;;;15.70;100.00;99832.25;5068665;28;20231;-61
2022/11/07 07:23:16;;;;;;;51.00;28.70;;;;;;;15.74;100.00;99833.81;5069219;28;20569;-62
2022/11/07 07:25:42;;;;;;;47.60;29.63;;;;;;;16.01;100.00;99833.50;5068753;28;20207;-62
2022/11/07 07:28:10;;;;;;;48.90;28.63;;;;;;;16.25;100.00;99829.75;5069921;28;20200;-61
2022/11/07 07:30:38;;;;;;;46.83;27.90;;;;;;;16.45;100.00;99834.03;5072338;28;20282;-62
2022/11/07 07:33:05;;;;;;;44.33;28.47;;;;;;;16.68;100.00;99839.91;5072020;28;20718;-62
2022/11/07 07:35:32;;;;;;;38.23;26.73;;;;;;;16.87;100.00;99839.84;5072093;28;25135;-62
2022/11/07 07:37:59;;;;;;;55.77;29.27;;;;;;;17.02;100.00;99840.88;5072146;28;25062;-62
2022/11/07 07:40:26;;;;;;;49.97;29.97;;;;;;;17.11;100.00;99826.44;5072067;28;25077;-61
2022/11/07 07:42:53;;;;;;;37.00;28.80;;;;;;;16.86;100.00;99818.94;5071945;28;25081;-60
2022/11/07 07:45:20;;;;;;;42.33;26.70;;;;;;;17.00;100.00;99824.34;5072530;28;20626;-62
2022/11/07 07:47:48;;;;;;;38.50;26.40;;;;;;;17.22;100.00;99835.47;5072190;28;25072;-60
2022/11/07 07:50:15;;;;;;;48.13;28.60;;;;;;;17.33;100.00;99835.75;5071296;28;25087;-61
2022/11/07 07:52:42;;;;;;;42.60;27.87;;;;;;;17.42;100.00;99832.66;5069817;28;25076;-59
2022/11/07 07:55:10;;;;;;;42.60;27.63;;;;;;;17.53;100.00;99839.13;5070025;28;20195;-60
2022/11/07 07:57:42;;;;;;;37.63;25.67;;;;;;;17.43;100.00;99834.34;5071971;28;20200;-61
2022/11/07 08:00:10;;;;;;;40.17;25.85;;;;;;;17.51;100.00;99840.97;5071877;28;20290;-59
2022/11/07 08:02:37;;;;;;;47.45;27.20;;;;;;;17.43;100.00;99838.75;5071693;28;20198;-59
2022/11/07 08:05:06;;;;;;;40.10;24.97;;;;;;;17.33;100.00;99832.28;5071883;28;20251;-59
2022/11/07 08:07:33;;;;;;;39.50;24.57;;;;;;;17.26;100.00;99820.44;5071511;28;20196;-60
2022/11/07 08:10:00;;;;;;;41.97;25.10;;;;;;;17.36;100.00;99826.88;5071733;28;20196;-59
2022/11/07 08:12:27;;;;;;;50.73;25.57;;;;;;;17.25;100.00;99829.22;5071583;28;20210;-61
2022/11/07 08:14:54;;;;;;;37.07;23.40;;;;;;;17.29;100.00;99825.50;5071402;28;20223;-60
2022/11/07 08:17:21;;;;;;;22.53;14.67;;;;;;;17.24;100.00;99825.75;5071586;28;20203;-59
2022/11/07 08:19:48;;;;;;;15.83;9.80;;;;;;;17.21;100.00;99831.13;5070719;28;21275;-60
2022/11/07 08:22:16;;;;;;;22.10;9.67;;;;;;;16.92;100.00;99808.16;5069815;28;20192;-61
2022/11/07 08:24:43;;;;;;;16.97;7.90;;;;;;;17.10;100.00;99824.75;5069899;28;20234;-61
2022/11/07 08:27:10;;;;;;;17.27;8.53;;;;;;;17.04;100.00;99831.97;5070395;28;20670;-60
2022/11/07 08:29:37;;;;;;;14.63;8.27;;;;;;;17.04;100.00;99839.03;5069814;28;20275;-59
2022/11/07 08:32:04;;;;;;;11.83;8.03;;;;;;;17.18;100.00;99838.31;5071401;28;20204;-60
2022/11/07 08:34:31;;;;;;;10.77;7.47;;;;;;;17.11;100.00;99842.19;5071515;28;20719;-59
2022/11/07 08:36:58;;;;;;;21.40;8.07;;;;;;;17.13;100.00;99830.69;5071323;28;20200;-59
2022/11/07 08:39:26;;;;;;;10.97;7.17;;;;;;;17.25;100.00;99848.44;5071113;28;20196;-59
2022/11/07 08:41:53;;;;;;;15.27;8.23;;;;;;;17.17;100.00;99842.69;5071021;28;20207;-61
2022/11/07 08:44:20;;;;;;;16.37;8.67;;;;;;;17.17;100.00;99842.69;5070790;28;20314;-62
2022/11/07 08:46:47;;;;;;;21.20;8.37;;;;;;;17.26;100.00;99846.66;5070790;28;20200;-61
2022/11/07 08:49:14;;;;;;;15.83;8.03;;;;;;;17.26;100.00;99852.75;5070964;28;20286;-59
2022/11/07 08:51:41;;;;;;;10.07;7.80;;;;;;;17.22;100.00;99848.56;5070695;28;20214;-59
2022/11/07 08:54:08;;;;;;;12.17;7.63;;;;;;;17.24;100.00;99849.34;5070668;28;20236;-61
2022/11/07 08:56:36;;;;;;;11.07;7.93;;;;;;;17.25;100.00;99856.31;5070518;28;20202;-61
2022/11/07 08:59:03;;;;;;;13.00;8.00;;;;;;;17.34;100.00;99854.97;5070632;28;20281;-61
2022/11/07 09:01:30;;;;;;;12.97;8.07;;;;;;;17.42;100.00;99852.81;5070832;28;20603;-61
2022/11/07 09:03:57;;;;;;;11.80;8.43;;;;;;;17.41;100.00;99857.19;5070534;28;20220;-61
2022/11/07 09:06:23;;;;;;;14.20;8.40;;;;;;;17.42;99.24;99853.66;5070678;28;20652;-62
2022/11/07 09:08:50;;;;;;;15.60;8.63;;;;;;;17.48;99.55;99855.13;5070379;28;20196;-61
2022/11/07 09:11:17;;;;;;;10.63;8.23;;;;;;;17.42;99.44;99835.28;5070216;28;20588;-59
2022/11/07 09:13:46;;;;;;;12.33;8.07;;;;;;;17.58;98.45;99842.38;5070232;28;20231;-60
2022/11/07 09:16:16;;;;;;;10.17;7.50;;;;;;;17.78;98.32;99856.16;5070298;28;20207;-60
2022/11/07 09:18:43;;;;;;;13.40;8.27;;;;;;;17.71;97.06;99846.09;5070313;28;20207;-60
2022/11/07 09:21:10;;;;;;;9.33;7.23;;;;;;;17.77;96.52;99851.00;5070059;28;20228;-60
2022/11/07 09:23:37;;;;;;;13.65;8.20;;;;;;;17.75;96.07;99866.81;5070018;28;20196;-61
2022/11/07 09:26:04;;;;;;;9.00;7.97;;;;;;;17.57;96.68;99861.66;5070069;28;20222;-60
2022/11/07 09:28:31;;;;;;;12.47;7.47;;;;;;;17.61;96.57;99863.19;5070237;28;20242;-60
2022/11/07 09:31:01;;;;;;;12.70;8.20;;;;;;;17.57;97.01;99857.28;5070388;28;20206;-60
2022/11/07 09:33:28;;;;;;;15.97;8.30;;;;;;;17.54;97.21;99849.53;5070119;28;20200;-60
2022/11/07 09:35:55;;;;;;;12.53;9.03;;;;;;;17.61;96.55;99848.28;5070117;28;20200;-60
2022/11/07 09:38:22;;;;;;;10.57;9.07;;;;;;;17.64;96.79;99837.66;5069882;28;20242;-62
2022/11/07 09:40:56;;;;;;;9.73;8.47;;;;;;;17.62;96.02;99849.13;5069851;28;20226;-62
2022/11/07 09:43:42;;;;;;;18.97;9.50;;;;;;;17.68;96.32;99841.00;5069810;28;20250;-63
2022/11/07 09:46:21;;;;;;;14.37;9.03;;;;;;;17.74;96.27;99832.78;5069819;28;20227;-61
2022/11/07 09:48:53;;;;;;;21.00;9.40;;;;;;;17.74;96.18;99835.41;5069401;28;20560;-61
2022/11/07 09:51:27;;;;;;;12.77;10.30;;;;;;;17.77;96.00;99832.63;5067720;28;20638;-61
2022/11/07 09:53:59;;;;;;;23.30;11.10;;;;;;;17.81;96.11;99839.41;5069333;28;20547;-61
2022/11/07 09:56:28;;;;;;;18.35;10.18;;;;;;;17.87;95.78;99823.31;5068745;28;20611;-61
2022/11/07 09:58:57;;;;;;;15.60;9.88;;;;;;;17.80;95.73;99827.22;5069162;28;20204;-60
2022/11/07 10:01:31;;;;;;;17.27;10.63;;;;;;;17.85;95.67;99824.31;5068696;28;20202;-61
2022/11/07 10:03:58;;;;;;;16.80;10.82;;;;;;;17.98;95.13;99826.22;5069774;28;20651;-61
2022/11/07 10:06:28;;;;;;;19.90;11.30;;;;;;;18.08;95.20;99831.81;5069546;28;20200;-61
2022/11/07 10:09:08;;;;;;;18.45;11.07;;;;;;;18.13;94.53;99829.78;5061147;28;20259;-61
2022/11/07 10:11:40;;;;;;;17.30;11.60;;;;;;;17.88;94.66;99803.16;5059696;28;20251;-63
2022/11/07 10:14:17;;;;;;;21.77;11.18;;;;;;;18.03;94.81;99818.09;5069152;28;20216;-63
2022/11/07 10:17:02;;;;;;;14.50;11.18;;;;;;;18.06;94.41;99824.00;5069106;28;20220;-62
2022/11/07 10:19:59;;;;;;;18.73;11.63;;;;;;;18.10;94.07;99814.19;5068654;28;20696;-63
2022/11/07 10:22:36;;;;;;;17.85;11.68;;;;;;;18.16;93.85;99819.13;5064148;28;20220;-63
2022/11/07 10:25:20;;;;;;;19.90;12.35;;;;;;;18.31;93.25;99809.53;5068863;28;20232;-63
2022/11/07 10:27:52;;;;;;;17.88;11.48;;;;;;;18.22;92.58;99797.75;5069263;28;20724;-63
2022/11/07 10:30:21;;;;;;;16.98;11.27;;;;;;;18.30;92.42;99800.78;5068954;28;20259;-63
2022/11/07 10:32:57;;;;;;;23.48;13.48;;;;;;;18.29;92.59;99808.75;5069190;28;20718;-63
2022/11/07 10:35:29;;;;;;;21.95;14.05;;;;;;;18.28;93.52;99796.56;5059580;28;20219;-63
2022/11/07 10:37:58;;;;;;;21.27;13.68;;;;;;;18.38;93.25;99792.50;5068568;28;20597;-61
2022/11/07 10:40:28;;;;;;;19.63;13.15;;;;;;;18.55;92.19;99794.16;5068482;28;20586;-60
2022/11/07 10:42:56;;;;;;;24.73;13.07;;;;;;;18.62;91.81;99788.50;5068952;28;20200;-61
2022/11/07 10:45:23;;;;;;;18.80;12.85;;;;;;;18.65;90.98;99785.69;5069216;28;20780;-60
2022/11/07 10:48:01;;;;;;;19.90;13.80;;;;;;;18.64;91.46;99765.59;5069063;28;20620;-61
2022/11/07 10:50:28;;;;;;;23.77;14.55;;;;;;;18.54;91.32;99743.34;5069174;28;20294;-60
2022/11/07 10:52:58;;;;;;;22.50;13.90;;;;;;;18.84;91.15;99770.56;5069047;28;20195;-60
2022/11/07 10:55:26;;;;;;;23.02;14.48;;;;;;;18.92;90.55;99766.63;5068904;28;20265;-61
2022/11/07 10:57:58;;;;;;;20.00;12.88;;;;;;;18.85;90.21;99745.91;5069000;28;20200;-62
2022/11/07 11:00:27;;;;;;;21.73;13.60;;;;;;;18.99;90.08;99758.25;5069021;28;20200;-62
2022/11/07 11:02:56;;;;;;;23.50;13.82;;;;;;;19.00;89.24;99753.84;5069957;28;20199;-62
2022/11/07 11:05:28;;;;;;;25.98;14.40;;;;;;;19.01;89.53;99761.66;5072769;28;20220;-62
2022/11/07 11:07:57;;;;;;;32.35;15.88;;;;;;;18.94;89.39;99759.47;5072632;28;20206;-62
2022/11/07 11:10:26;;;;;;;27.77;14.48;;;;;;;18.93;89.01;99745.47;5072653;28;20214;-64
2022/11/07 11:12:53;;;;;;;19.05;13.93;;;;;;;18.86;88.96;99737.09;5072662;28;20326;-62
2022/11/07 11:15:21;;;;;;;23.08;13.98;;;;;;;19.02;89.00;99749.34;5072557;28;20202;-62
2022/11/07 11:17:58;;;;;;;25.27;14.68;;;;;;;19.09;89.06;99740.13;5072579;28;20291;-62
2022/11/07 11:20:35;;;;;;;22.70;14.52;;;;;;;19.03;88.40;99722.09;5071413;28;20230;-62
2022/11/07 11:23:04;;;;;;;23.40;15.00;;;;;;;19.15;88.02;99734.53;5072741;28;20191;-62
2022/11/07 11:25:31;;;;;;;27.27;14.65;;;;;;;19.20;88.19;99730.66;5072581;28;20226;-62
2022/11/07 11:28:04;;;;;;;26.35;15.13;;;;;;;19.28;87.15;99724.94;5072658;28;20668;-62
2022/11/07 11:30:32;;;;;;;26.95;16.25;;;;;;;19.15;87.65;99721.34;5072439;28;20199;-62